sensor_id;sensor_type;location;lat;lon;timestamp;P1;durP1;ratioP1;P2;durP2;ratioP2
78187;SDS011;67456;41.872;21.602;2024-02-15T00:00:36;11.07;;;7.05;;
78187;SDS011;67456;41.872;21.602;2024-02-15T00:03:03;15.38;;;8.15;;
78187;SDS011;67456;41.872;21.602;2024-02-15T00:05:32;16.98;;;11.10;;
78187;SDS011;67456;41.872;21.602;2024-02-15T00:08:01;14.40;;;9.02;;
78187;SDS011;67456;41.872;21.602;2024-02-15T00:10:28;15.32;;;9.30;;
78187;SDS011;67456;41.872;21.602;2024-02-15T00:12:54;11.73;;;7.68;;
78187;SDS011;67456;41.872;21.602;2024-02-15T00:15:20;14.85;;;8.50;;
78187;SDS011;67456;41.872;21.602;2024-02-15T00:17:46;13.27;;;7.57;;
78187;SDS011;67456;41.872;21.602;2024-02-15T00:20:13;13.98;;;8.65;;
78187;SDS011;67456;41.872;21.602;2024-02-15T00:22:39;12.68;;;7.55;;
78187;SDS011;67456;41.872;21.602;2024-02-15T00:25:08;12.27;;;7.03;;
78187;SDS011;67456;41.872;21.602;2024-02-15T00:27:36;12.20;;;7.65;;
78187;SDS011;67456;41.872;21.602;2024-02-15T00:30:03;15.88;;;7.53;;
78187;SDS011;67456;41.872;21.602;2024-02-15T00:32:35;10.35;;;7.10;;
78187;SDS011;67456;41.872;21.602;2024-02-15T00:35:02;10.52;;;7.38;;
78187;SDS011;67456;41.872;21.602;2024-02-15T00:37:33;10.15;;;6.47;;
78187;SDS011;67456;41.872;21.602;2024-02-15T00:39:59;14.93;;;8.73;;
78187;SDS011;67456;41.872;21.602;2024-02-15T00:42:25;10.98;;;7.55;;
78187;SDS011;67456;41.872;21.602;2024-02-15T00:44:51;12.27;;;6.20;;
78187;SDS011;67456;41.872;21.602;2024-02-15T00:47:17;10.20;;;6.80;;
78187;SDS011;67456;41.872;21.602;2024-02-15T00:49:46;10.23;;;6.40;;
78187;SDS011;67456;41.872;21.602;2024-02-15T00:52:12;11.93;;;6.97;;
78187;SDS011;67456;41.872;21.602;2024-02-15T00:54:38;7.45;;;5.18;;
78187;SDS011;67456;41.872;21.602;2024-02-15T00:57:05;8.63;;;5.85;;
78187;SDS011;67456;41.872;21.602;2024-02-15T00:59:31;11.23;;;6.32;;
78187;SDS011;67456;41.872;21.602;2024-02-15T01:02:00;10.75;;;7.13;;
78187;SDS011;67456;41.872;21.602;2024-02-15T01:04:27;12.32;;;8.00;;
78187;SDS011;67456;41.872;21.602;2024-02-15T01:06:54;10.93;;;6.22;;
78187;SDS011;67456;41.872;21.602;2024-02-15T01:09:21;11.35;;;6.53;;
78187;SDS011;67456;41.872;21.602;2024-02-15T01:11:47;23.63;;;10.07;;
78187;SDS011;67456;41.872;21.602;2024-02-15T01:14:14;42.85;;;16.42;;
78187;SDS011;67456;41.872;21.602;2024-02-15T01:16:43;15.07;;;8.55;;
78187;SDS011;67456;41.872;21.602;2024-02-15T01:19:09;19.20;;;10.48;;
78187;SDS011;67456;41.872;21.602;2024-02-15T01:21:35;32.10;;;14.98;;
78187;SDS011;67456;41.872;21.602;2024-02-15T01:24:02;15.43;;;8.02;;
78187;SDS011;67456;41.872;21.602;2024-02-15T01:26:28;11.77;;;7.22;;
78187;SDS011;67456;41.872;21.602;2024-02-15T01:28:55;26.75;;;13.05;;
78187;SDS011;67456;41.872;21.602;2024-02-15T01:31:21;23.30;;;11.75;;
78187;SDS011;67456;41.872;21.602;2024-02-15T01:33:48;17.85;;;10.40;;
78187;SDS011;67456;41.872;21.602;2024-02-15T01:36:14;16.17;;;8.55;;
78187;SDS011;67456;41.872;21.602;2024-02-15T01:38:41;17.98;;;10.75;;
78187;SDS011;67456;41.872;21.602;2024-02-15T01:41:07;15.15;;;9.23;;
78187;SDS011;67456;41.872;21.602;2024-02-15T01:43:34;12.32;;;7.95;;
78187;SDS011;67456;41.872;21.602;2024-02-15T01:46:01;12.30;;;8.15;;
78187;SDS011;67456;41.872;21.602;2024-02-15T01:48:32;13.50;;;8.52;;
78187;SDS011;67456;41.872;21.602;2024-02-15T01:50:58;21.50;;;10.60;;
78187;SDS011;67456;41.872;21.602;2024-02-15T01:53:24;24.13;;;12.27;;
78187;SDS011;67456;41.872;21.602;2024-02-15T01:55:52;21.42;;;10.70;;
78187;SDS011;67456;41.872;21.602;2024-02-15T01:58:20;17.00;;;9.95;;
78187;SDS011;67456;41.872;21.602;2024-02-15T02:00:47;18.15;;;10.13;;
78187;SDS011;67456;41.872;21.602;2024-02-15T02:03:14;19.40;;;10.85;;
78187;SDS011;67456;41.872;21.602;2024-02-15T02:05:40;18.05;;;8.80;;
78187;SDS011;67456;41.872;21.602;2024-02-15T02:08:07;32.88;;;17.85;;
78187;SDS011;67456;41.872;21.602;2024-02-15T02:10:38;26.85;;;15.13;;
78187;SDS011;67456;41.872;21.602;2024-02-15T02:13:04;21.75;;;11.10;;
78187;SDS011;67456;41.872;21.602;2024-02-15T02:15:31;13.77;;;8.07;;
78187;SDS011;67456;41.872;21.602;2024-02-15T02:17:58;13.57;;;7.65;;
78187;SDS011;67456;41.872;21.602;2024-02-15T02:20:25;26.15;;;12.63;;
78187;SDS011;67456;41.872;21.602;2024-02-15T02:22:53;26.88;;;12.38;;
78187;SDS011;67456;41.872;21.602;2024-02-15T02:25:22;33.20;;;13.82;;
78187;SDS011;67456;41.872;21.602;2024-02-15T02:27:51;27.00;;;13.60;;
78187;SDS011;67456;41.872;21.602;2024-02-15T02:30:17;10.45;;;6.47;;
78187;SDS011;67456;41.872;21.602;2024-02-15T02:32:44;11.88;;;6.97;;
78187;SDS011;67456;41.872;21.602;2024-02-15T02:35:13;12.65;;;6.28;;
78187;SDS011;67456;41.872;21.602;2024-02-15T02:37:41;9.45;;;5.95;;
78187;SDS011;67456;41.872;21.602;2024-02-15T02:40:08;17.13;;;7.70;;
78187;SDS011;67456;41.872;21.602;2024-02-15T02:45:26;35.20;;;12.48;;
78187;SDS011;67456;41.872;21.602;2024-02-15T02:47:52;35.42;;;13.13;;
78187;SDS011;67456;41.872;21.602;2024-02-15T02:50:19;24.83;;;10.85;;
78187;SDS011;67456;41.872;21.602;2024-02-15T02:52:46;18.25;;;8.85;;
78187;SDS011;67456;41.872;21.602;2024-02-15T02:55:13;10.85;;;5.88;;
78187;SDS011;67456;41.872;21.602;2024-02-15T02:57:40;14.32;;;7.20;;
78187;SDS011;67456;41.872;21.602;2024-02-15T03:02:34;62.30;;;17.00;;
78187;SDS011;67456;41.872;21.602;2024-02-15T03:05:03;19.38;;;8.85;;
78187;SDS011;67456;41.872;21.602;2024-02-15T03:07:34;20.80;;;8.50;;
78187;SDS011;67456;41.872;21.602;2024-02-15T03:10:01;11.15;;;6.35;;
78187;SDS011;67456;41.872;21.602;2024-02-15T03:12:33;10.32;;;6.32;;
78187;SDS011;67456;41.872;21.602;2024-02-15T03:15:05;15.25;;;7.70;;
78187;SDS011;67456;41.872;21.602;2024-02-15T03:17:38;15.32;;;7.03;;
78187;SDS011;67456;41.872;21.602;2024-02-15T03:20:05;9.00;;;5.78;;
78187;SDS011;67456;41.872;21.602;2024-02-15T03:22:58;12.65;;;6.20;;
78187;SDS011;67456;41.872;21.602;2024-02-15T03:25:25;20.05;;;16.55;;
78187;SDS011;67456;41.872;21.602;2024-02-15T03:27:55;8.90;;;6.45;;
78187;SDS011;67456;41.872;21.602;2024-02-15T03:30:21;8.63;;;5.10;;
78187;SDS011;67456;41.872;21.602;2024-02-15T03:32:49;21.83;;;10.43;;
78187;SDS011;67456;41.872;21.602;2024-02-15T03:35:20;34.75;;;13.60;;
78187;SDS011;67456;41.872;21.602;2024-02-15T03:37:47;11.48;;;7.18;;
78187;SDS011;67456;41.872;21.602;2024-02-15T03:40:17;9.20;;;6.65;;
78187;SDS011;67456;41.872;21.602;2024-02-15T03:42:43;10.32;;;6.50;;
78187;SDS011;67456;41.872;21.602;2024-02-15T03:45:09;10.90;;;6.85;;
78187;SDS011;67456;41.872;21.602;2024-02-15T03:47:36;10.55;;;7.32;;
78187;SDS011;67456;41.872;21.602;2024-02-15T03:50:03;11.88;;;8.90;;
78187;SDS011;67456;41.872;21.602;2024-02-15T03:52:29;10.57;;;6.95;;
78187;SDS011;67456;41.872;21.602;2024-02-15T03:54:58;13.15;;;8.38;;
78187;SDS011;67456;41.872;21.602;2024-02-15T03:57:25;12.63;;;6.85;;
78187;SDS011;67456;41.872;21.602;2024-02-15T03:59:52;15.45;;;8.57;;
78187;SDS011;67456;41.872;21.602;2024-02-15T04:02:19;9.98;;;6.93;;
78187;SDS011;67456;41.872;21.602;2024-02-15T04:04:48;10.40;;;7.13;;
78187;SDS011;67456;41.872;21.602;2024-02-15T04:07:17;9.27;;;6.40;;
78187;SDS011;67456;41.872;21.602;2024-02-15T04:09:44;13.70;;;7.35;;
78187;SDS011;67456;41.872;21.602;2024-02-15T04:12:11;9.68;;;6.70;;
78187;SDS011;67456;41.872;21.602;2024-02-15T04:14:37;9.48;;;6.65;;
78187;SDS011;67456;41.872;21.602;2024-02-15T04:17:04;10.60;;;6.20;;
78187;SDS011;67456;41.872;21.602;2024-02-15T04:19:33;8.85;;;6.10;;
78187;SDS011;67456;41.872;21.602;2024-02-15T04:21:59;11.50;;;7.00;;
78187;SDS011;67456;41.872;21.602;2024-02-15T04:24:29;10.00;;;6.57;;
78187;SDS011;67456;41.872;21.602;2024-02-15T04:26:57;10.65;;;7.72;;
78187;SDS011;67456;41.872;21.602;2024-02-15T04:29:24;11.82;;;7.78;;
78187;SDS011;67456;41.872;21.602;2024-02-15T04:31:50;12.48;;;7.55;;
78187;SDS011;67456;41.872;21.602;2024-02-15T04:34:16;12.07;;;6.90;;
78187;SDS011;67456;41.872;21.602;2024-02-15T04:36:45;15.43;;;7.78;;
78187;SDS011;67456;41.872;21.602;2024-02-15T04:39:15;23.33;;;12.05;;
78187;SDS011;67456;41.872;21.602;2024-02-15T04:41:49;24.02;;;13.77;;
78187;SDS011;67456;41.872;21.602;2024-02-15T04:44:15;22.00;;;13.43;;
78187;SDS011;67456;41.872;21.602;2024-02-15T04:46:45;23.02;;;13.02;;
78187;SDS011;67456;41.872;21.602;2024-02-15T04:49:14;18.40;;;11.52;;
78187;SDS011;67456;41.872;21.602;2024-02-15T04:51:40;12.57;;;7.95;;
78187;SDS011;67456;41.872;21.602;2024-02-15T04:54:07;18.08;;;9.35;;
78187;SDS011;67456;41.872;21.602;2024-02-15T04:56:33;17.85;;;10.95;;
78187;SDS011;67456;41.872;21.602;2024-02-15T04:59:01;19.52;;;10.82;;
78187;SDS011;67456;41.872;21.602;2024-02-15T05:01:28;17.58;;;10.77;;
78187;SDS011;67456;41.872;21.602;2024-02-15T05:03:58;16.52;;;9.95;;
78187;SDS011;67456;41.872;21.602;2024-02-15T05:06:24;13.23;;;8.82;;
78187;SDS011;67456;41.872;21.602;2024-02-15T05:08:55;15.00;;;9.02;;
78187;SDS011;67456;41.872;21.602;2024-02-15T05:11:22;14.77;;;9.13;;
78187;SDS011;67456;41.872;21.602;2024-02-15T05:13:48;14.82;;;8.98;;
78187;SDS011;67456;41.872;21.602;2024-02-15T05:16:17;17.15;;;10.45;;
78187;SDS011;67456;41.872;21.602;2024-02-15T05:18:44;18.48;;;11.05;;
78187;SDS011;67456;41.872;21.602;2024-02-15T05:21:13;18.35;;;10.43;;
78187;SDS011;67456;41.872;21.602;2024-02-15T05:23:40;17.08;;;10.20;;
78187;SDS011;67456;41.872;21.602;2024-02-15T05:26:08;12.13;;;8.30;;
78187;SDS011;67456;41.872;21.602;2024-02-15T05:28:34;13.05;;;8.70;;
78187;SDS011;67456;41.872;21.602;2024-02-15T05:31:13;16.45;;;10.63;;
78187;SDS011;67456;41.872;21.602;2024-02-15T05:33:43;13.38;;;8.05;;
78187;SDS011;67456;41.872;21.602;2024-02-15T05:36:16;14.48;;;9.27;;
78187;SDS011;67456;41.872;21.602;2024-02-15T05:38:46;15.23;;;9.68;;
78187;SDS011;67456;41.872;21.602;2024-02-15T05:41:13;18.77;;;10.90;;
78187;SDS011;67456;41.872;21.602;2024-02-15T05:43:39;13.60;;;8.80;;
78187;SDS011;67456;41.872;21.602;2024-02-15T05:46:09;14.75;;;7.65;;
78187;SDS011;67456;41.872;21.602;2024-02-15T05:48:35;13.23;;;8.88;;
78187;SDS011;67456;41.872;21.602;2024-02-15T05:51:02;11.35;;;8.50;;
78187;SDS011;67456;41.872;21.602;2024-02-15T05:53:29;13.30;;;8.23;;
78187;SDS011;67456;41.872;21.602;2024-02-15T05:55:56;12.73;;;7.05;;
78187;SDS011;67456;41.872;21.602;2024-02-15T05:58:23;14.18;;;8.27;;
78187;SDS011;67456;41.872;21.602;2024-02-15T06:00:50;11.23;;;7.60;;
78187;SDS011;67456;41.872;21.602;2024-02-15T06:03:17;13.35;;;9.05;;
78187;SDS011;67456;41.872;21.602;2024-02-15T06:05:43;13.05;;;8.95;;
78187;SDS011;67456;41.872;21.602;2024-02-15T06:08:13;21.38;;;10.80;;
78187;SDS011;67456;41.872;21.602;2024-02-15T06:10:39;17.98;;;9.85;;
78187;SDS011;67456;41.872;21.602;2024-02-15T06:13:06;15.32;;;10.13;;
78187;SDS011;67456;41.872;21.602;2024-02-15T06:15:34;13.75;;;8.18;;
78187;SDS011;67456;41.872;21.602;2024-02-15T06:18:01;15.63;;;8.65;;
78187;SDS011;67456;41.872;21.602;2024-02-15T06:20:29;15.68;;;9.88;;
78187;SDS011;67456;41.872;21.602;2024-02-15T06:22:55;21.80;;;12.80;;
78187;SDS011;67456;41.872;21.602;2024-02-15T06:25:22;25.38;;;13.45;;
78187;SDS011;67456;41.872;21.602;2024-02-15T06:27:48;19.15;;;13.88;;
78187;SDS011;67456;41.872;21.602;2024-02-15T06:30:16;18.10;;;12.10;;
78187;SDS011;67456;41.872;21.602;2024-02-15T06:33:01;16.45;;;10.95;;
78187;SDS011;67456;41.872;21.602;2024-02-15T06:35:45;18.10;;;10.82;;
78187;SDS011;67456;41.872;21.602;2024-02-15T06:38:30;16.50;;;10.55;;
78187;SDS011;67456;41.872;21.602;2024-02-15T06:41:15;12.07;;;8.93;;
78187;SDS011;67456;41.872;21.602;2024-02-15T06:43:41;15.27;;;8.65;;
78187;SDS011;67456;41.872;21.602;2024-02-15T06:46:08;16.50;;;10.13;;
78187;SDS011;67456;41.872;21.602;2024-02-15T06:48:36;15.85;;;10.95;;
78187;SDS011;67456;41.872;21.602;2024-02-15T06:51:02;17.50;;;11.35;;
78187;SDS011;67456;41.872;21.602;2024-02-15T06:53:29;21.35;;;12.60;;
78187;SDS011;67456;41.872;21.602;2024-02-15T06:55:56;30.85;;;17.95;;
78187;SDS011;67456;41.872;21.602;2024-02-15T06:58:22;34.72;;;21.05;;
78187;SDS011;67456;41.872;21.602;2024-02-15T07:00:48;26.20;;;15.15;;
78187;SDS011;67456;41.872;21.602;2024-02-15T07:03:17;22.80;;;14.10;;
78187;SDS011;67456;41.872;21.602;2024-02-15T07:05:43;17.45;;;10.35;;
78187;SDS011;67456;41.872;21.602;2024-02-15T07:08:09;20.70;;;11.80;;
78187;SDS011;67456;41.872;21.602;2024-02-15T07:10:39;20.48;;;12.93;;
78187;SDS011;67456;41.872;21.602;2024-02-15T07:13:05;17.10;;;10.68;;
78187;SDS011;67456;41.872;21.602;2024-02-15T07:15:32;14.68;;;9.40;;
78187;SDS011;67456;41.872;21.602;2024-02-15T07:18:03;14.25;;;10.30;;
78187;SDS011;67456;41.872;21.602;2024-02-15T07:20:31;16.77;;;10.63;;
78187;SDS011;67456;41.872;21.602;2024-02-15T07:22:57;16.85;;;11.05;;
78187;SDS011;67456;41.872;21.602;2024-02-15T07:25:23;14.73;;;10.98;;
78187;SDS011;67456;41.872;21.602;2024-02-15T07:27:50;21.10;;;12.73;;
78187;SDS011;67456;41.872;21.602;2024-02-15T07:30:17;16.70;;;11.57;;
78187;SDS011;67456;41.872;21.602;2024-02-15T07:32:44;16.50;;;10.65;;
78187;SDS011;67456;41.872;21.602;2024-02-15T07:35:11;17.88;;;12.65;;
78187;SDS011;67456;41.872;21.602;2024-02-15T07:37:39;17.27;;;11.88;;
78187;SDS011;67456;41.872;21.602;2024-02-15T07:40:05;23.42;;;14.80;;
78187;SDS011;67456;41.872;21.602;2024-02-15T07:42:33;19.95;;;16.08;;
78187;SDS011;67456;41.872;21.602;2024-02-15T07:45:00;13.65;;;10.98;;
78187;SDS011;67456;41.872;21.602;2024-02-15T07:47:26;15.82;;;12.63;;
78187;SDS011;67456;41.872;21.602;2024-02-15T07:49:55;14.45;;;10.02;;
78187;SDS011;67456;41.872;21.602;2024-02-15T07:52:21;12.20;;;9.07;;
78187;SDS011;67456;41.872;21.602;2024-02-15T07:54:47;10.82;;;8.82;;
78187;SDS011;67456;41.872;21.602;2024-02-15T07:57:13;11.10;;;9.13;;
78187;SDS011;67456;41.872;21.602;2024-02-15T07:59:40;11.00;;;9.10;;
78187;SDS011;67456;41.872;21.602;2024-02-15T08:02:07;10.57;;;9.48;;
78187;SDS011;67456;41.872;21.602;2024-02-15T08:04:33;12.70;;;11.43;;
78187;SDS011;67456;41.872;21.602;2024-02-15T08:07:05;16.70;;;13.80;;
78187;SDS011;67456;41.872;21.602;2024-02-15T08:09:35;12.90;;;9.85;;
78187;SDS011;67456;41.872;21.602;2024-02-15T08:12:02;12.65;;;10.02;;
78187;SDS011;67456;41.872;21.602;2024-02-15T08:14:28;12.75;;;9.65;;
78187;SDS011;67456;41.872;21.602;2024-02-15T08:16:56;19.83;;;15.25;;
78187;SDS011;67456;41.872;21.602;2024-02-15T08:19:22;13.77;;;10.93;;
78187;SDS011;67456;41.872;21.602;2024-02-15T08:21:48;16.13;;;13.18;;
78187;SDS011;67456;41.872;21.602;2024-02-15T08:24:16;15.15;;;12.95;;
78187;SDS011;67456;41.872;21.602;2024-02-15T08:26:42;11.73;;;10.52;;
78187;SDS011;67456;41.872;21.602;2024-02-15T08:29:08;11.60;;;9.13;;
78187;SDS011;67456;41.872;21.602;2024-02-15T08:31:34;11.27;;;9.52;;
78187;SDS011;67456;41.872;21.602;2024-02-15T08:34:01;11.05;;;9.95;;
78187;SDS011;67456;41.872;21.602;2024-02-15T08:36:30;12.40;;;9.90;;
78187;SDS011;67456;41.872;21.602;2024-02-15T08:38:56;11.55;;;8.98;;
78187;SDS011;67456;41.872;21.602;2024-02-15T08:41:23;11.32;;;8.50;;
78187;SDS011;67456;41.872;21.602;2024-02-15T08:43:52;15.18;;;9.73;;
78187;SDS011;67456;41.872;21.602;2024-02-15T08:46:18;11.10;;;8.95;;
78187;SDS011;67456;41.872;21.602;2024-02-15T08:48:45;9.80;;;8.70;;
78187;SDS011;67456;41.872;21.602;2024-02-15T08:51:12;11.00;;;9.15;;
78187;SDS011;67456;41.872;21.602;2024-02-15T08:53:38;11.60;;;8.90;;
78187;SDS011;67456;41.872;21.602;2024-02-15T08:56:04;10.27;;;8.63;;
78187;SDS011;67456;41.872;21.602;2024-02-15T08:58:31;9.05;;;8.15;;
78187;SDS011;67456;41.872;21.602;2024-02-15T09:00:58;9.95;;;8.90;;
78187;SDS011;67456;41.872;21.602;2024-02-15T09:03:24;9.43;;;8.43;;
78187;SDS011;67456;41.872;21.602;2024-02-15T09:05:50;9.55;;;8.05;;
78187;SDS011;67456;41.872;21.602;2024-02-15T09:08:16;10.77;;;8.70;;
78187;SDS011;67456;41.872;21.602;2024-02-15T09:10:46;10.25;;;9.20;;
78187;SDS011;67456;41.872;21.602;2024-02-15T09:13:13;10.13;;;9.02;;
78187;SDS011;67456;41.872;21.602;2024-02-15T09:15:39;11.18;;;9.23;;
78187;SDS011;67456;41.872;21.602;2024-02-15T09:18:07;10.07;;;8.98;;
78187;SDS011;67456;41.872;21.602;2024-02-15T09:20:35;9.75;;;8.45;;
78187;SDS011;67456;41.872;21.602;2024-02-15T09:23:03;9.75;;;7.72;;
78187;SDS011;67456;41.872;21.602;2024-02-15T09:25:34;11.60;;;8.00;;
78187;SDS011;67456;41.872;21.602;2024-02-15T09:28:01;12.57;;;9.07;;
78187;SDS011;67456;41.872;21.602;2024-02-15T09:30:28;12.20;;;8.60;;
78187;SDS011;67456;41.872;21.602;2024-02-15T09:32:56;12.35;;;8.63;;
78187;SDS011;67456;41.872;21.602;2024-02-15T09:35:22;13.20;;;9.15;;
78187;SDS011;67456;41.872;21.602;2024-02-15T09:37:49;13.50;;;8.20;;
78187;SDS011;67456;41.872;21.602;2024-02-15T09:40:15;10.75;;;8.18;;
78187;SDS011;67456;41.872;21.602;2024-02-15T09:42:43;11.98;;;8.65;;
78187;SDS011;67456;41.872;21.602;2024-02-15T09:45:10;12.95;;;9.70;;
78187;SDS011;67456;41.872;21.602;2024-02-15T09:47:41;15.30;;;10.38;;
78187;SDS011;67456;41.872;21.602;2024-02-15T09:50:14;16.52;;;11.60;;
78187;SDS011;67456;41.872;21.602;2024-02-15T09:52:44;12.95;;;9.18;;
78187;SDS011;67456;41.872;21.602;2024-02-15T09:57:38;11.07;;;7.32;;
78187;SDS011;67456;41.872;21.602;2024-02-15T10:00:05;13.55;;;7.22;;
78187;SDS011;67456;41.872;21.602;2024-02-15T10:02:38;12.90;;;7.80;;
78187;SDS011;67456;41.872;21.602;2024-02-15T10:05:06;10.25;;;7.45;;
78187;SDS011;67456;41.872;21.602;2024-02-15T10:07:45;10.63;;;6.93;;
78187;SDS011;67456;41.872;21.602;2024-02-15T10:12:48;10.32;;;7.50;;
78187;SDS011;67456;41.872;21.602;2024-02-15T10:17:59;11.02;;;6.88;;
78187;SDS011;67456;41.872;21.602;2024-02-15T10:20:25;11.70;;;7.05;;
78187;SDS011;67456;41.872;21.602;2024-02-15T10:25:27;10.70;;;7.05;;
78187;SDS011;67456;41.872;21.602;2024-02-15T10:28:07;11.88;;;7.05;;
78187;SDS011;67456;41.872;21.602;2024-02-15T10:30:34;12.95;;;7.57;;
78187;SDS011;67456;41.872;21.602;2024-02-15T10:33:01;11.95;;;7.07;;
78187;SDS011;67456;41.872;21.602;2024-02-15T10:35:27;12.30;;;8.45;;
78187;SDS011;67456;41.872;21.602;2024-02-15T10:38:05;9.95;;;7.25;;
78187;SDS011;67456;41.872;21.602;2024-02-15T10:40:36;12.27;;;7.65;;
78187;SDS011;67456;41.872;21.602;2024-02-15T10:43:02;10.52;;;7.65;;
78187;SDS011;67456;41.872;21.602;2024-02-15T10:45:32;11.30;;;6.95;;
78187;SDS011;67456;41.872;21.602;2024-02-15T10:48:02;11.25;;;6.82;;
78187;SDS011;67456;41.872;21.602;2024-02-15T10:50:30;10.73;;;7.18;;
78187;SDS011;67456;41.872;21.602;2024-02-15T10:52:58;7.18;;;5.80;;
78187;SDS011;67456;41.872;21.602;2024-02-15T10:58:09;6.70;;;4.60;;
78187;SDS011;67456;41.872;21.602;2024-02-15T11:00:38;8.80;;;6.57;;
78187;SDS011;67456;41.872;21.602;2024-02-15T11:03:07;8.05;;;5.50;;
78187;SDS011;67456;41.872;21.602;2024-02-15T11:05:37;8.88;;;6.22;;
78187;SDS011;67456;41.872;21.602;2024-02-15T11:08:10;10.68;;;5.93;;
78187;SDS011;67456;41.872;21.602;2024-02-15T11:10:37;7.68;;;5.53;;
78187;SDS011;67456;41.872;21.602;2024-02-15T11:13:04;8.95;;;5.93;;
78187;SDS011;67456;41.872;21.602;2024-02-15T11:15:40;11.30;;;8.00;;
78187;SDS011;67456;41.872;21.602;2024-02-15T11:18:07;10.60;;;7.05;;
78187;SDS011;67456;41.872;21.602;2024-02-15T11:22:59;9.65;;;6.63;;
78187;SDS011;67456;41.872;21.602;2024-02-15T11:25:35;10.23;;;7.45;;
78187;SDS011;67456;41.872;21.602;2024-02-15T11:30:48;10.48;;;7.55;;
78187;SDS011;67456;41.872;21.602;2024-02-15T11:33:24;13.43;;;9.60;;
78187;SDS011;67456;41.872;21.602;2024-02-15T11:36:11;14.65;;;9.35;;
78187;SDS011;67456;41.872;21.602;2024-02-15T11:38:38;10.02;;;6.68;;
78187;SDS011;67456;41.872;21.602;2024-02-15T11:41:10;10.18;;;7.10;;
78187;SDS011;67456;41.872;21.602;2024-02-15T11:46:17;9.48;;;6.97;;
78187;SDS011;67456;41.872;21.602;2024-02-15T11:48:44;8.57;;;6.45;;
78187;SDS011;67456;41.872;21.602;2024-02-15T11:51:24;9.15;;;6.05;;
78187;SDS011;67456;41.872;21.602;2024-02-15T11:56:26;10.15;;;6.88;;
78187;SDS011;67456;41.872;21.602;2024-02-15T11:59:04;10.45;;;6.30;;
78187;SDS011;67456;41.872;21.602;2024-02-15T12:01:37;14.65;;;8.05;;
78187;SDS011;67456;41.872;21.602;2024-02-15T12:04:22;11.00;;;7.20;;
78187;SDS011;67456;41.872;21.602;2024-02-15T12:07:07;9.63;;;5.88;;
78187;SDS011;67456;41.872;21.602;2024-02-15T12:09:57;8.60;;;5.65;;
78187;SDS011;67456;41.872;21.602;2024-02-15T12:12:50;11.23;;;6.40;;
78187;SDS011;67456;41.872;21.602;2024-02-15T12:15:34;7.78;;;5.30;;
78187;SDS011;67456;41.872;21.602;2024-02-15T12:18:19;9.43;;;6.18;;
78187;SDS011;67456;41.872;21.602;2024-02-15T12:21:04;8.75;;;5.63;;
78187;SDS011;67456;41.872;21.602;2024-02-15T12:23:31;9.13;;;5.97;;
78187;SDS011;67456;41.872;21.602;2024-02-15T12:25:59;9.98;;;5.35;;
78187;SDS011;67456;41.872;21.602;2024-02-15T12:28:28;9.75;;;5.25;;
78187;SDS011;67456;41.872;21.602;2024-02-15T12:30:55;9.13;;;5.60;;
78187;SDS011;67456;41.872;21.602;2024-02-15T12:33:24;8.48;;;5.38;;
78187;SDS011;67456;41.872;21.602;2024-02-15T12:35:52;7.57;;;5.07;;
78187;SDS011;67456;41.872;21.602;2024-02-15T12:38:30;11.77;;;6.30;;
78187;SDS011;67456;41.872;21.602;2024-02-15T12:40:56;8.52;;;6.20;;
78187;SDS011;67456;41.872;21.602;2024-02-15T12:43:23;8.68;;;5.60;;
78187;SDS011;67456;41.872;21.602;2024-02-15T12:45:49;10.25;;;6.20;;
78187;SDS011;67456;41.872;21.602;2024-02-15T12:48:15;10.60;;;6.40;;
78187;SDS011;67456;41.872;21.602;2024-02-15T12:50:44;9.98;;;6.55;;
78187;SDS011;67456;41.872;21.602;2024-02-15T12:53:11;9.35;;;5.57;;
78187;SDS011;67456;41.872;21.602;2024-02-15T12:55:39;8.57;;;4.55;;
78187;SDS011;67456;41.872;21.602;2024-02-15T12:58:06;8.02;;;4.55;;
78187;SDS011;67456;41.872;21.602;2024-02-15T13:00:33;8.20;;;5.72;;
78187;SDS011;67456;41.872;21.602;2024-02-15T13:03:07;7.43;;;5.00;;
78187;SDS011;67456;41.872;21.602;2024-02-15T13:05:35;7.53;;;4.82;;
78187;SDS011;67456;41.872;21.602;2024-02-15T13:08:01;8.80;;;5.38;;
78187;SDS011;67456;41.872;21.602;2024-02-15T13:10:29;9.30;;;5.82;;
78187;SDS011;67456;41.872;21.602;2024-02-15T13:12:56;9.23;;;6.45;;
78187;SDS011;67456;41.872;21.602;2024-02-15T13:15:23;11.45;;;6.03;;
78187;SDS011;67456;41.872;21.602;2024-02-15T13:17:58;9.93;;;5.75;;
78187;SDS011;67456;41.872;21.602;2024-02-15T13:20:24;10.07;;;4.90;;
78187;SDS011;67456;41.872;21.602;2024-02-15T13:22:57;8.70;;;5.53;;
78187;SDS011;67456;41.872;21.602;2024-02-15T13:25:27;13.95;;;7.60;;
78187;SDS011;67456;41.872;21.602;2024-02-15T13:27:53;10.00;;;6.75;;
78187;SDS011;67456;41.872;21.602;2024-02-15T13:30:19;9.30;;;6.10;;
78187;SDS011;67456;41.872;21.602;2024-02-15T13:32:49;7.85;;;5.68;;
78187;SDS011;67456;41.872;21.602;2024-02-15T13:35:19;14.43;;;8.57;;
78187;SDS011;67456;41.872;21.602;2024-02-15T13:37:49;11.68;;;6.82;;
78187;SDS011;67456;41.872;21.602;2024-02-15T13:40:19;7.53;;;4.72;;
78187;SDS011;67456;41.872;21.602;2024-02-15T13:42:48;7.03;;;4.60;;
78187;SDS011;67456;41.872;21.602;2024-02-15T13:45:18;8.75;;;5.47;;
78187;SDS011;67456;41.872;21.602;2024-02-15T13:47:45;9.27;;;5.10;;
78187;SDS011;67456;41.872;21.602;2024-02-15T13:50:15;11.63;;;6.85;;
78187;SDS011;67456;41.872;21.602;2024-02-15T13:52:45;16.80;;;7.05;;
78187;SDS011;67456;41.872;21.602;2024-02-15T13:55:15;20.13;;;9.27;;
78187;SDS011;67456;41.872;21.602;2024-02-15T13:57:42;20.77;;;10.38;;
78187;SDS011;67456;41.872;21.602;2024-02-15T14:00:08;16.85;;;7.47;;
78187;SDS011;67456;41.872;21.602;2024-02-15T14:02:42;19.58;;;8.73;;
78187;SDS011;67456;41.872;21.602;2024-02-15T14:05:09;18.27;;;7.90;;
78187;SDS011;67456;41.872;21.602;2024-02-15T14:07:37;11.00;;;6.35;;
78187;SDS011;67456;41.872;21.602;2024-02-15T14:10:04;12.07;;;6.70;;
78187;SDS011;67456;41.872;21.602;2024-02-15T14:12:31;9.35;;;5.53;;
78187;SDS011;67456;41.872;21.602;2024-02-15T14:14:57;9.43;;;5.88;;
78187;SDS011;67456;41.872;21.602;2024-02-15T14:17:23;11.93;;;6.43;;
78187;SDS011;67456;41.872;21.602;2024-02-15T14:19:50;9.80;;;6.15;;
78187;SDS011;67456;41.872;21.602;2024-02-15T14:22:16;11.07;;;6.32;;
78187;SDS011;67456;41.872;21.602;2024-02-15T14:24:42;9.38;;;6.20;;
78187;SDS011;67456;41.872;21.602;2024-02-15T14:27:09;13.45;;;5.85;;
78187;SDS011;67456;41.872;21.602;2024-02-15T14:29:36;9.70;;;5.15;;
78187;SDS011;67456;41.872;21.602;2024-02-15T14:32:10;10.52;;;5.35;;
78187;SDS011;67456;41.872;21.602;2024-02-15T14:34:55;7.15;;;4.75;;
78187;SDS011;67456;41.872;21.602;2024-02-15T14:37:21;9.20;;;6.32;;
78187;SDS011;67456;41.872;21.602;2024-02-15T14:39:49;13.02;;;7.25;;
78187;SDS011;67456;41.872;21.602;2024-02-15T14:42:15;12.45;;;6.60;;
78187;SDS011;67456;41.872;21.602;2024-02-15T14:44:41;11.70;;;5.97;;
78187;SDS011;67456;41.872;21.602;2024-02-15T14:47:08;8.98;;;6.55;;
78187;SDS011;67456;41.872;21.602;2024-02-15T14:49:34;8.50;;;4.80;;
78187;SDS011;67456;41.872;21.602;2024-02-15T14:52:00;8.73;;;5.38;;
78187;SDS011;67456;41.872;21.602;2024-02-15T14:54:28;8.85;;;5.07;;
78187;SDS011;67456;41.872;21.602;2024-02-15T14:56:54;6.90;;;4.93;;